sensor_id;sensor_type;location;lat;lon;timestamp;P1;durP1;ratioP1;P2;durP2;ratioP2
29712;SDS011;16623;53.632;10.016;2023-12-28T00:01:18;2.40;;;1.70;;
29712;SDS011;16623;53.632;10.016;2023-12-28T00:03:44;4.82;;;2.05;;
29712;SDS011;16623;53.632;10.016;2023-12-28T00:06:09;2.38;;;1.42;;
29712;SDS011;16623;53.632;10.016;2023-12-28T00:08:35;2.70;;;1.55;;
29712;SDS011;16623;53.632;10.016;2023-12-28T00:11:00;3.00;;;1.65;;
29712;SDS011;16623;53.632;10.016;2023-12-28T00:13:26;3.70;;;2.00;;
29712;SDS011;16623;53.632;10.016;2023-12-28T00:15:53;3.30;;;1.90;;
29712;SDS011;16623;53.632;10.016;2023-12-28T00:18:18;5.38;;;1.95;;
29712;SDS011;16623;53.632;10.016;2023-12-28T00:20:44;2.78;;;1.60;;
29712;SDS011;16623;53.632;10.016;2023-12-28T00:23:12;2.83;;;1.75;;
29712;SDS011;16623;53.632;10.016;2023-12-28T00:25:38;3.45;;;2.00;;
29712;SDS011;16623;53.632;10.016;2023-12-28T00:28:04;5.20;;;1.98;;
29712;SDS011;16623;53.632;10.016;2023-12-28T00:30:29;5.63;;;2.75;;
29712;SDS011;16623;53.632;10.016;2023-12-28T00:32:55;1.88;;;1.45;;
29712;SDS011;16623;53.632;10.016;2023-12-28T00:35:20;3.20;;;1.85;;
29712;SDS011;16623;53.632;10.016;2023-12-28T00:37:46;3.13;;;1.83;;
29712;SDS011;16623;53.632;10.016;2023-12-28T00:40:12;3.90;;;1.60;;
29712;SDS011;16623;53.632;10.016;2023-12-28T00:42:38;4.60;;;1.80;;
29712;SDS011;16623;53.632;10.016;2023-12-28T00:45:06;2.58;;;2.08;;
29712;SDS011;16623;53.632;10.016;2023-12-28T00:47:32;2.97;;;2.13;;
29712;SDS011;16623;53.632;10.016;2023-12-28T00:49:57;2.95;;;1.70;;
29712;SDS011;16623;53.632;10.016;2023-12-28T00:52:23;2.33;;;1.60;;
29712;SDS011;16623;53.632;10.016;2023-12-28T00:54:49;6.47;;;2.03;;
29712;SDS011;16623;53.632;10.016;2023-12-28T00:57:14;4.97;;;2.05;;
29712;SDS011;16623;53.632;10.016;2023-12-28T00:59:40;6.03;;;1.77;;
29712;SDS011;16623;53.632;10.016;2023-12-28T01:02:05;5.10;;;1.75;;
29712;SDS011;16623;53.632;10.016;2023-12-28T01:04:31;7.55;;;2.38;;
29712;SDS011;16623;53.632;10.016;2023-12-28T01:06:56;5.57;;;2.03;;
29712;SDS011;16623;53.632;10.016;2023-12-28T01:09:23;3.80;;;1.90;;
29712;SDS011;16623;53.632;10.016;2023-12-28T01:11:49;3.20;;;1.98;;
29712;SDS011;16623;53.632;10.016;2023-12-28T01:14:15;1.50;;;1.38;;
29712;SDS011;16623;53.632;10.016;2023-12-28T01:16:40;6.55;;;2.22;;
29712;SDS011;16623;53.632;10.016;2023-12-28T01:21:56;3.28;;;1.75;;
29712;SDS011;16623;53.632;10.016;2023-12-28T01:24:22;4.78;;;1.60;;
29712;SDS011;16623;53.632;10.016;2023-12-28T01:26:47;3.65;;;2.03;;
29712;SDS011;16623;53.632;10.016;2023-12-28T01:29:13;4.20;;;1.80;;
29712;SDS011;16623;53.632;10.016;2023-12-28T01:31:38;1.42;;;1.33;;
29712;SDS011;16623;53.632;10.016;2023-12-28T01:34:05;2.40;;;1.80;;
29712;SDS011;16623;53.632;10.016;2023-12-28T01:36:30;6.38;;;2.13;;
29712;SDS011;16623;53.632;10.016;2023-12-28T01:38:56;15.38;;;3.20;;
29712;SDS011;16623;53.632;10.016;2023-12-28T01:41:22;2.45;;;1.75;;
29712;SDS011;16623;53.632;10.016;2023-12-28T01:43:47;5.78;;;2.15;;
29712;SDS011;16623;53.632;10.016;2023-12-28T01:46:19;3.67;;;2.00;;
29712;SDS011;16623;53.632;10.016;2023-12-28T01:48:46;3.10;;;1.90;;
29712;SDS011;16623;53.632;10.016;2023-12-28T01:51:15;3.60;;;1.90;;
29712;SDS011;16623;53.632;10.016;2023-12-28T01:53:44;6.72;;;1.80;;
29712;SDS011;16623;53.632;10.016;2023-12-28T01:56:12;4.63;;;2.10;;
29712;SDS011;16623;53.632;10.016;2023-12-28T01:58:38;4.28;;;2.28;;
29712;SDS011;16623;53.632;10.016;2023-12-28T02:01:07;4.30;;;2.40;;
29712;SDS011;16623;53.632;10.016;2023-12-28T02:03:33;5.88;;;2.22;;
29712;SDS011;16623;53.632;10.016;2023-12-28T02:05:59;4.75;;;2.90;;
29712;SDS011;16623;53.632;10.016;2023-12-28T02:08:26;4.35;;;2.22;;
29712;SDS011;16623;53.632;10.016;2023-12-28T02:10:51;5.68;;;1.85;;
29712;SDS011;16623;53.632;10.016;2023-12-28T02:13:17;4.32;;;2.40;;
29712;SDS011;16623;53.632;10.016;2023-12-28T02:15:43;3.60;;;1.98;;
29712;SDS011;16623;53.632;10.016;2023-12-28T02:18:16;3.97;;;2.20;;
29712;SDS011;16623;53.632;10.016;2023-12-28T02:20:50;5.30;;;2.22;;
29712;SDS011;16623;53.632;10.016;2023-12-28T02:23:16;2.95;;;2.10;;
29712;SDS011;16623;53.632;10.016;2023-12-28T02:25:41;6.18;;;2.40;;
29712;SDS011;16623;53.632;10.016;2023-12-28T02:28:07;3.72;;;2.40;;
29712;SDS011;16623;53.632;10.016;2023-12-28T02:30:33;3.72;;;2.10;;
29712;SDS011;16623;53.632;10.016;2023-12-28T02:35:55;4.03;;;2.60;;
29712;SDS011;16623;53.632;10.016;2023-12-28T02:38:23;3.88;;;2.35;;
29712;SDS011;16623;53.632;10.016;2023-12-28T02:40:50;6.72;;;2.95;;
29712;SDS011;16623;53.632;10.016;2023-12-28T02:43:16;7.40;;;2.47;;
29712;SDS011;16623;53.632;10.016;2023-12-28T02:45:42;6.28;;;2.28;;
29712;SDS011;16623;53.632;10.016;2023-12-28T02:48:07;5.20;;;2.35;;
29712;SDS011;16623;53.632;10.016;2023-12-28T02:50:33;10.80;;;2.80;;
29712;SDS011;16623;53.632;10.016;2023-12-28T02:52:59;20.75;;;2.70;;
29712;SDS011;16623;53.632;10.016;2023-12-28T02:55:25;4.63;;;2.35;;
29712;SDS011;16623;53.632;10.016;2023-12-28T02:57:52;4.13;;;2.38;;
29712;SDS011;16623;53.632;10.016;2023-12-28T03:00:20;4.00;;;2.30;;
29712;SDS011;16623;53.632;10.016;2023-12-28T03:02:46;5.65;;;2.40;;
29712;SDS011;16623;53.632;10.016;2023-12-28T03:05:11;5.68;;;2.35;;
29712;SDS011;16623;53.632;10.016;2023-12-28T03:07:37;7.85;;;2.25;;
29712;SDS011;16623;53.632;10.016;2023-12-28T03:10:04;5.20;;;2.88;;
29712;SDS011;16623;53.632;10.016;2023-12-28T03:12:30;4.60;;;2.60;;
29712;SDS011;16623;53.632;10.016;2023-12-28T03:14:55;4.28;;;2.58;;
29712;SDS011;16623;53.632;10.016;2023-12-28T03:17:21;4.72;;;2.95;;
29712;SDS011;16623;53.632;10.016;2023-12-28T03:19:47;11.57;;;2.00;;
29712;SDS011;16623;53.632;10.016;2023-12-28T03:22:12;8.57;;;2.67;;
29712;SDS011;16623;53.632;10.016;2023-12-28T03:24:38;4.78;;;2.70;;
29712;SDS011;16623;53.632;10.016;2023-12-28T03:27:05;4.35;;;2.38;;
29712;SDS011;16623;53.632;10.016;2023-12-28T03:29:30;8.00;;;2.55;;
29712;SDS011;16623;53.632;10.016;2023-12-28T03:31:56;6.57;;;3.10;;
29712;SDS011;16623;53.632;10.016;2023-12-28T03:34:22;5.40;;;2.53;;
29712;SDS011;16623;53.632;10.016;2023-12-28T03:36:51;7.50;;;3.00;;
29712;SDS011;16623;53.632;10.016;2023-12-28T03:39:16;3.80;;;2.15;;
29712;SDS011;16623;53.632;10.016;2023-12-28T03:41:42;3.13;;;2.03;;
29712;SDS011;16623;53.632;10.016;2023-12-28T03:44:07;9.75;;;2.85;;
29712;SDS011;16623;53.632;10.016;2023-12-28T03:46:33;7.28;;;3.00;;
29712;SDS011;16623;53.632;10.016;2023-12-28T03:48:58;2.72;;;2.10;;
29712;SDS011;16623;53.632;10.016;2023-12-28T03:51:24;5.00;;;3.00;;
29712;SDS011;16623;53.632;10.016;2023-12-28T03:53:49;10.88;;;2.88;;
29712;SDS011;16623;53.632;10.016;2023-12-28T03:56:19;4.35;;;2.75;;
29712;SDS011;16623;53.632;10.016;2023-12-28T03:58:49;4.15;;;2.55;;
29712;SDS011;16623;53.632;10.016;2023-12-28T04:01:18;3.42;;;2.80;;
29712;SDS011;16623;53.632;10.016;2023-12-28T04:03:45;6.35;;;2.53;;
29712;SDS011;16623;53.632;10.016;2023-12-28T04:06:11;4.00;;;2.40;;
29712;SDS011;16623;53.632;10.016;2023-12-28T04:08:37;3.63;;;1.98;;
29712;SDS011;16623;53.632;10.016;2023-12-28T04:11:03;5.07;;;2.50;;
29712;SDS011;16623;53.632;10.016;2023-12-28T04:13:29;8.65;;;2.60;;
29712;SDS011;16623;53.632;10.016;2023-12-28T04:15:56;4.07;;;2.03;;
29712;SDS011;16623;53.632;10.016;2023-12-28T04:18:21;4.53;;;2.90;;
29712;SDS011;16623;53.632;10.016;2023-12-28T04:20:47;7.15;;;2.63;;
29712;SDS011;16623;53.632;10.016;2023-12-28T04:23:13;5.25;;;2.33;;
29712;SDS011;16623;53.632;10.016;2023-12-28T04:25:39;11.30;;;2.65;;
29712;SDS011;16623;53.632;10.016;2023-12-28T04:28:04;6.78;;;2.92;;
29712;SDS011;16623;53.632;10.016;2023-12-28T04:30:31;9.45;;;2.80;;
29712;SDS011;16623;53.632;10.016;2023-12-28T04:32:56;7.38;;;2.50;;
29712;SDS011;16623;53.632;10.016;2023-12-28T04:35:22;2.17;;;2.00;;
29712;SDS011;16623;53.632;10.016;2023-12-28T04:37:47;5.57;;;2.70;;
29712;SDS011;16623;53.632;10.016;2023-12-28T04:40:13;6.10;;;2.85;;
29712;SDS011;16623;53.632;10.016;2023-12-28T04:42:39;4.78;;;2.65;;
29712;SDS011;16623;53.632;10.016;2023-12-28T04:45:06;4.60;;;2.63;;
29712;SDS011;16623;53.632;10.016;2023-12-28T04:47:31;7.53;;;2.25;;
29712;SDS011;16623;53.632;10.016;2023-12-28T04:49:57;7.03;;;3.00;;
29712;SDS011;16623;53.632;10.016;2023-12-28T04:52:22;5.25;;;2.90;;
29712;SDS011;16623;53.632;10.016;2023-12-28T04:54:48;5.68;;;2.55;;
29712;SDS011;16623;53.632;10.016;2023-12-28T04:57:14;4.53;;;2.45;;
29712;SDS011;16623;53.632;10.016;2023-12-28T04:59:39;3.50;;;2.30;;
29712;SDS011;16623;53.632;10.016;2023-12-28T05:02:05;8.25;;;2.70;;
29712;SDS011;16623;53.632;10.016;2023-12-28T05:04:31;6.15;;;2.83;;
29712;SDS011;16623;53.632;10.016;2023-12-28T05:06:56;4.97;;;2.75;;
29712;SDS011;16623;53.632;10.016;2023-12-28T05:09:22;4.25;;;2.63;;
29712;SDS011;16623;53.632;10.016;2023-12-28T05:11:47;7.82;;;2.95;;
29712;SDS011;16623;53.632;10.016;2023-12-28T05:14:13;4.15;;;2.35;;
29712;SDS011;16623;53.632;10.016;2023-12-28T05:16:38;3.25;;;2.28;;
29712;SDS011;16623;53.632;10.016;2023-12-28T05:19:04;7.35;;;2.80;;
29712;SDS011;16623;53.632;10.016;2023-12-28T05:21:29;3.03;;;2.42;;
29712;SDS011;16623;53.632;10.016;2023-12-28T05:23:55;4.95;;;2.63;;
29712;SDS011;16623;53.632;10.016;2023-12-28T05:26:20;4.55;;;2.22;;
29712;SDS011;16623;53.632;10.016;2023-12-28T05:28:47;4.53;;;2.47;;
29712;SDS011;16623;53.632;10.016;2023-12-28T05:31:13;3.63;;;2.00;;
29712;SDS011;16623;53.632;10.016;2023-12-28T05:33:38;3.88;;;2.63;;
29712;SDS011;16623;53.632;10.016;2023-12-28T05:36:04;8.65;;;3.10;;
29712;SDS011;16623;53.632;10.016;2023-12-28T05:38:30;3.38;;;2.45;;
29712;SDS011;16623;53.632;10.016;2023-12-28T05:40:56;7.80;;;2.80;;
29712;SDS011;16623;53.632;10.016;2023-12-28T05:43:23;3.63;;;2.40;;
29712;SDS011;16623;53.632;10.016;2023-12-28T05:45:48;5.45;;;2.45;;
29712;SDS011;16623;53.632;10.016;2023-12-28T05:48:14;4.85;;;2.45;;
29712;SDS011;16623;53.632;10.016;2023-12-28T05:50:40;6.93;;;2.88;;
29712;SDS011;16623;53.632;10.016;2023-12-28T05:53:05;6.53;;;3.10;;
29712;SDS011;16623;53.632;10.016;2023-12-28T05:55:31;6.18;;;3.03;;
29712;SDS011;16623;53.632;10.016;2023-12-28T05:57:56;7.35;;;2.83;;
29712;SDS011;16623;53.632;10.016;2023-12-28T06:00:22;6.85;;;3.38;;
29712;SDS011;16623;53.632;10.016;2023-12-28T06:02:48;7.03;;;3.25;;
29712;SDS011;16623;53.632;10.016;2023-12-28T06:05:17;4.78;;;2.47;;
29712;SDS011;16623;53.632;10.016;2023-12-28T06:07:42;4.80;;;2.70;;
29712;SDS011;16623;53.632;10.016;2023-12-28T06:10:08;5.65;;;2.40;;
29712;SDS011;16623;53.632;10.016;2023-12-28T06:12:34;3.63;;;2.42;;
29712;SDS011;16623;53.632;10.016;2023-12-28T06:15:00;7.22;;;2.75;;
29712;SDS011;16623;53.632;10.016;2023-12-28T06:17:26;5.93;;;3.55;;
29712;SDS011;16623;53.632;10.016;2023-12-28T06:19:51;6.10;;;2.95;;
29712;SDS011;16623;53.632;10.016;2023-12-28T06:22:17;7.20;;;2.40;;
29712;SDS011;16623;53.632;10.016;2023-12-28T06:24:43;5.97;;;2.88;;
29712;SDS011;16623;53.632;10.016;2023-12-28T06:27:08;7.72;;;1.95;;
29712;SDS011;16623;53.632;10.016;2023-12-28T06:29:34;4.53;;;2.78;;
29712;SDS011;16623;53.632;10.016;2023-12-28T06:31:59;14.70;;;3.10;;
29712;SDS011;16623;53.632;10.016;2023-12-28T06:34:25;7.20;;;2.80;;
29712;SDS011;16623;53.632;10.016;2023-12-28T06:36:51;5.97;;;2.40;;
29712;SDS011;16623;53.632;10.016;2023-12-28T06:39:17;5.18;;;2.35;;
29712;SDS011;16623;53.632;10.016;2023-12-28T06:41:42;10.07;;;3.08;;
29712;SDS011;16623;53.632;10.016;2023-12-28T06:44:11;4.82;;;2.28;;
29712;SDS011;16623;53.632;10.016;2023-12-28T06:46:38;5.28;;;2.90;;
29712;SDS011;16623;53.632;10.016;2023-12-28T06:49:04;5.70;;;2.72;;
29712;SDS011;16623;53.632;10.016;2023-12-28T06:51:30;3.15;;;1.80;;
29712;SDS011;16623;53.632;10.016;2023-12-28T06:53:56;7.78;;;2.28;;
29712;SDS011;16623;53.632;10.016;2023-12-28T06:56:22;6.20;;;2.78;;
29712;SDS011;16623;53.632;10.016;2023-12-28T06:58:47;10.30;;;3.03;;
29712;SDS011;16623;53.632;10.016;2023-12-28T07:01:13;4.63;;;1.83;;
29712;SDS011;16623;53.632;10.016;2023-12-28T07:03:38;9.48;;;2.40;;
29712;SDS011;16623;53.632;10.016;2023-12-28T07:06:04;3.67;;;1.55;;
29712;SDS011;16623;53.632;10.016;2023-12-28T07:08:30;9.05;;;3.17;;
29712;SDS011;16623;53.632;10.016;2023-12-28T07:10:55;7.38;;;2.58;;
29712;SDS011;16623;53.632;10.016;2023-12-28T07:13:22;5.43;;;2.00;;
29712;SDS011;16623;53.632;10.016;2023-12-28T07:15:48;6.55;;;2.90;;
29712;SDS011;16623;53.632;10.016;2023-12-28T07:18:13;8.40;;;2.20;;
29712;SDS011;16623;53.632;10.016;2023-12-28T07:20:39;4.47;;;2.45;;
29712;SDS011;16623;53.632;10.016;2023-12-28T07:23:05;6.45;;;2.42;;
29712;SDS011;16623;53.632;10.016;2023-12-28T07:25:30;4.32;;;1.90;;
29712;SDS011;16623;53.632;10.016;2023-12-28T07:27:56;4.35;;;2.25;;
29712;SDS011;16623;53.632;10.016;2023-12-28T07:30:21;5.97;;;1.48;;
29712;SDS011;16623;53.632;10.016;2023-12-28T07:32:47;4.97;;;2.15;;
29712;SDS011;16623;53.632;10.016;2023-12-28T07:35:12;6.88;;;2.42;;
29712;SDS011;16623;53.632;10.016;2023-12-28T07:37:38;2.03;;;1.42;;
29712;SDS011;16623;53.632;10.016;2023-12-28T07:40:04;6.60;;;2.00;;
29712;SDS011;16623;53.632;10.016;2023-12-28T07:42:30;6.38;;;1.88;;
29712;SDS011;16623;53.632;10.016;2023-12-28T07:44:55;5.43;;;2.55;;
29712;SDS011;16623;53.632;10.016;2023-12-28T07:47:21;3.15;;;1.80;;
29712;SDS011;16623;53.632;10.016;2023-12-28T07:49:46;3.72;;;1.52;;
29712;SDS011;16623;53.632;10.016;2023-12-28T07:52:12;5.38;;;2.70;;
29712;SDS011;16623;53.632;10.016;2023-12-28T07:54:37;5.30;;;2.38;;
29712;SDS011;16623;53.632;10.016;2023-12-28T07:57:03;6.82;;;2.00;;
29712;SDS011;16623;53.632;10.016;2023-12-28T07:59:29;8.95;;;2.88;;
29712;SDS011;16623;53.632;10.016;2023-12-28T08:01:55;2.88;;;1.80;;
29712;SDS011;16623;53.632;10.016;2023-12-28T08:04:22;7.43;;;2.10;;
29712;SDS011;16623;53.632;10.016;2023-12-28T08:06:48;6.05;;;2.13;;
29712;SDS011;16623;53.632;10.016;2023-12-28T08:09:13;4.70;;;2.17;;
29712;SDS011;16623;53.632;10.016;2023-12-28T08:11:39;9.32;;;2.15;;
29712;SDS011;16623;53.632;10.016;2023-12-28T08:14:05;5.20;;;2.00;;
29712;SDS011;16623;53.632;10.016;2023-12-28T08:16:30;5.53;;;1.90;;
29712;SDS011;16623;53.632;10.016;2023-12-28T08:18:56;7.07;;;2.97;;
29712;SDS011;16623;53.632;10.016;2023-12-28T08:21:21;5.88;;;2.13;;
29712;SDS011;16623;53.632;10.016;2023-12-28T08:23:47;5.93;;;1.92;;
29712;SDS011;16623;53.632;10.016;2023-12-28T08:26:12;8.77;;;2.47;;
29712;SDS011;16623;53.632;10.016;2023-12-28T08:28:38;9.95;;;3.33;;
29712;SDS011;16623;53.632;10.016;2023-12-28T08:31:03;6.00;;;1.70;;
29712;SDS011;16623;53.632;10.016;2023-12-28T08:33:29;5.70;;;2.15;;
29712;SDS011;16623;53.632;10.016;2023-12-28T08:35:55;8.38;;;2.90;;
29712;SDS011;16623;53.632;10.016;2023-12-28T08:38:20;7.20;;;1.88;;
29712;SDS011;16623;53.632;10.016;2023-12-28T08:40:49;7.50;;;2.17;;
29712;SDS011;16623;53.632;10.016;2023-12-28T08:43:14;4.60;;;2.03;;
29712;SDS011;16623;53.632;10.016;2023-12-28T08:45:40;6.18;;;2.20;;
29712;SDS011;16623;53.632;10.016;2023-12-28T08:48:06;7.28;;;1.90;;
29712;SDS011;16623;53.632;10.016;2023-12-28T08:50:31;3.85;;;1.80;;
29712;SDS011;16623;53.632;10.016;2023-12-28T08:52:57;9.43;;;2.03;;
29712;SDS011;16623;53.632;10.016;2023-12-28T08:55:22;6.88;;;2.00;;
29712;SDS011;16623;53.632;10.016;2023-12-28T08:57:48;8.50;;;1.98;;
29712;SDS011;16623;53.632;10.016;2023-12-28T09:00:14;10.00;;;1.98;;
29712;SDS011;16623;53.632;10.016;2023-12-28T09:02:41;4.53;;;2.13;;
29712;SDS011;16623;53.632;10.016;2023-12-28T09:05:07;5.88;;;1.90;;
29712;SDS011;16623;53.632;10.016;2023-12-28T09:07:34;5.72;;;1.73;;
29712;SDS011;16623;53.632;10.016;2023-12-28T09:10:01;6.72;;;2.33;;
29712;SDS011;16623;53.632;10.016;2023-12-28T09:12:28;7.40;;;2.55;;
29712;SDS011;16623;53.632;10.016;2023-12-28T09:14:54;6.50;;;1.98;;
29712;SDS011;16623;53.632;10.016;2023-12-28T09:17:22;7.68;;;2.65;;
29712;SDS011;16623;53.632;10.016;2023-12-28T09:19:48;8.52;;;3.05;;
29712;SDS011;16623;53.632;10.016;2023-12-28T09:22:14;5.72;;;1.95;;
29712;SDS011;16623;53.632;10.016;2023-12-28T09:24:39;11.73;;;2.33;;
29712;SDS011;16623;53.632;10.016;2023-12-28T09:27:05;9.85;;;2.40;;
29712;SDS011;16623;53.632;10.016;2023-12-28T09:29:31;7.55;;;1.58;;
29712;SDS011;16623;53.632;10.016;2023-12-28T09:31:57;6.20;;;1.70;;
29712;SDS011;16623;53.632;10.016;2023-12-28T09:34:22;11.65;;;1.58;;
29712;SDS011;16623;53.632;10.016;2023-12-28T09:36:48;9.90;;;2.47;;
29712;SDS011;16623;53.632;10.016;2023-12-28T09:39:14;6.03;;;1.92;;
29712;SDS011;16623;53.632;10.016;2023-12-28T09:41:39;7.93;;;2.55;;
29712;SDS011;16623;53.632;10.016;2023-12-28T09:44:11;9.05;;;1.63;;
29712;SDS011;16623;53.632;10.016;2023-12-28T09:46:40;4.43;;;1.85;;
29712;SDS011;16623;53.632;10.016;2023-12-28T09:49:07;8.27;;;2.17;;
29712;SDS011;16623;53.632;10.016;2023-12-28T09:51:33;15.25;;;2.78;;
29712;SDS011;16623;53.632;10.016;2023-12-28T09:53:59;9.65;;;2.42;;
29712;SDS011;16623;53.632;10.016;2023-12-28T09:56:24;13.60;;;1.67;;
29712;SDS011;16623;53.632;10.016;2023-12-28T09:58:50;6.88;;;2.33;;
29712;SDS011;16623;53.632;10.016;2023-12-28T10:01:16;9.65;;;1.95;;
29712;SDS011;16623;53.632;10.016;2023-12-28T10:03:43;3.90;;;1.83;;
29712;SDS011;16623;53.632;10.016;2023-12-28T10:06:09;8.23;;;2.47;;
29712;SDS011;16623;53.632;10.016;2023-12-28T10:08:35;7.65;;;1.88;;
29712;SDS011;16623;53.632;10.016;2023-12-28T10:11:01;10.77;;;1.65;;
29712;SDS011;16623;53.632;10.016;2023-12-28T10:13:27;7.85;;;2.00;;
29712;SDS011;16623;53.632;10.016;2023-12-28T10:15:56;11.57;;;1.75;;
29712;SDS011;16623;53.632;10.016;2023-12-28T10:18:23;10.77;;;2.40;;
29712;SDS011;16623;53.632;10.016;2023-12-28T10:20:49;12.40;;;2.25;;
29712;SDS011;16623;53.632;10.016;2023-12-28T10:23:15;8.38;;;1.83;;
29712;SDS011;16623;53.632;10.016;2023-12-28T10:25:42;15.35;;;2.58;;
29712;SDS011;16623;53.632;10.016;2023-12-28T10:28:08;9.52;;;2.00;;
29712;SDS011;16623;53.632;10.016;2023-12-28T10:30:35;6.78;;;1.65;;
29712;SDS011;16623;53.632;10.016;2023-12-28T10:33:00;12.23;;;2.45;;
29712;SDS011;16623;53.632;10.016;2023-12-28T10:35:26;10.50;;;2.67;;
29712;SDS011;16623;53.632;10.016;2023-12-28T10:37:52;9.00;;;2.67;;
29712;SDS011;16623;53.632;10.016;2023-12-28T10:40:20;13.73;;;2.40;;
29712;SDS011;16623;53.632;10.016;2023-12-28T10:43:00;8.85;;;2.22;;
29712;SDS011;16623;53.632;10.016;2023-12-28T10:45:29;10.70;;;2.53;;
29712;SDS011;16623;53.632;10.016;2023-12-28T10:48:04;13.50;;;2.70;;
29712;SDS011;16623;53.632;10.016;2023-12-28T10:58:48;11.30;;;1.90;;
29712;SDS011;16623;53.632;10.016;2023-12-28T11:01:31;6.38;;;2.05;;
29712;SDS011;16623;53.632;10.016;2023-12-28T11:04:07;11.55;;;2.35;;
29712;SDS011;16623;53.632;10.016;2023-12-28T11:06:36;11.20;;;2.38;;
29712;SDS011;16623;53.632;10.016;2023-12-28T11:09:03;12.57;;;2.38;;
29712;SDS011;16623;53.632;10.016;2023-12-28T11:11:31;9.70;;;1.85;;
29712;SDS011;16623;53.632;10.016;2023-12-28T11:13:59;8.15;;;2.40;;
29712;SDS011;16623;53.632;10.016;2023-12-28T11:16:26;10.45;;;1.98;;
29712;SDS011;16623;53.632;10.016;2023-12-28T11:18:54;14.23;;;2.28;;
29712;SDS011;16623;53.632;10.016;2023-12-28T11:21:20;12.80;;;2.65;;
29712;SDS011;16623;53.632;10.016;2023-12-28T11:23:48;12.50;;;2.22;;
29712;SDS011;16623;53.632;10.016;2023-12-28T11:26:21;13.57;;;2.10;;
29712;SDS011;16623;53.632;10.016;2023-12-28T11:28:47;16.67;;;2.75;;
29712;SDS011;16623;53.632;10.016;2023-12-28T11:31:13;6.43;;;1.52;;
29712;SDS011;16623;53.632;10.016;2023-12-28T11:33:46;11.63;;;2.33;;
29712;SDS011;16623;53.632;10.016;2023-12-28T11:36:23;8.80;;;2.22;;
29712;SDS011;16623;53.632;10.016;2023-12-28T11:39:04;14.95;;;3.08;;
29712;SDS011;16623;53.632;10.016;2023-12-28T11:41:32;11.70;;;1.73;;
29712;SDS011;16623;53.632;10.016;2023-12-28T11:44:01;10.52;;;1.90;;
29712;SDS011;16623;53.632;10.016;2023-12-28T11:46:29;12.90;;;2.10;;
29712;SDS011;16623;53.632;10.016;2023-12-28T11:49:04;8.55;;;2.00;;
29712;SDS011;16623;53.632;10.016;2023-12-28T11:51:35;8.77;;;2.03;;
29712;SDS011;16623;53.632;10.016;2023-12-28T11:54:03;11.60;;;2.33;;
29712;SDS011;16623;53.632;10.016;2023-12-28T11:56:29;22.30;;;2.90;;
29712;SDS011;16623;53.632;10.016;2023-12-28T11:58:55;14.40;;;1.98;;
29712;SDS011;16623;53.632;10.016;2023-12-28T12:01:21;14.57;;;2.35;;
29712;SDS011;16623;53.632;10.016;2023-12-28T12:03:47;10.18;;;2.65;;
29712;SDS011;16623;53.632;10.016;2023-12-28T12:06:13;11.68;;;1.83;;
29712;SDS011;16623;53.632;10.016;2023-12-28T12:08:39;12.00;;;2.63;;
29712;SDS011;16623;53.632;10.016;2023-12-28T12:11:05;16.45;;;2.20;;
29712;SDS011;16623;53.632;10.016;2023-12-28T12:13:32;13.82;;;2.10;;
29712;SDS011;16623;53.632;10.016;2023-12-28T12:15:57;17.15;;;3.47;;
29712;SDS011;16623;53.632;10.016;2023-12-28T12:18:24;10.43;;;2.30;;
29712;SDS011;16623;53.632;10.016;2023-12-28T12:20:50;10.20;;;2.60;;
29712;SDS011;16623;53.632;10.016;2023-12-28T12:23:18;14.63;;;2.08;;
29712;SDS011;16623;53.632;10.016;2023-12-28T12:25:44;8.90;;;2.42;;
29712;SDS011;16623;53.632;10.016;2023-12-28T12:28:10;13.63;;;3.47;;
29712;SDS011;16623;53.632;10.016;2023-12-28T12:30:36;15.35;;;2.92;;
29712;SDS011;16623;53.632;10.016;2023-12-28T12:33:02;11.75;;;2.95;;
29712;SDS011;16623;53.632;10.016;2023-12-28T12:35:28;17.55;;;3.13;;
29712;SDS011;16623;53.632;10.016;2023-12-28T12:37:54;18.10;;;2.20;;
29712;SDS011;16623;53.632;10.016;2023-12-28T12:40:19;10.23;;;2.50;;
29712;SDS011;16623;53.632;10.016;2023-12-28T12:42:55;13.90;;;2.35;;
29712;SDS011;16623;53.632;10.016;2023-12-28T12:45:21;13.70;;;2.95;;
29712;SDS011;16623;53.632;10.016;2023-12-28T12:47:47;11.25;;;2.78;;
29712;SDS011;16623;53.632;10.016;2023-12-28T12:50:13;8.13;;;2.75;;
29712;SDS011;16623;53.632;10.016;2023-12-28T12:52:41;8.50;;;2.30;;
29712;SDS011;16623;53.632;10.016;2023-12-28T12:55:10;6.50;;;1.98;;
29712;SDS011;16623;53.632;10.016;2023-12-28T12:57:39;11.65;;;2.72;;
29712;SDS011;16623;53.632;10.016;2023-12-28T13:00:05;12.35;;;2.58;;
29712;SDS011;16623;53.632;10.016;2023-12-28T13:02:34;17.85;;;3.45;;
29712;SDS011;16623;53.632;10.016;2023-12-28T13:05:03;20.38;;;2.72;;
29712;SDS011;16623;53.632;10.016;2023-12-28T13:07:30;11.98;;;2.22;;
29712;SDS011;16623;53.632;10.016;2023-12-28T13:09:56;8.35;;;2.22;;
29712;SDS011;16623;53.632;10.016;2023-12-28T13:12:22;10.82;;;2.50;;
29712;SDS011;16623;53.632;10.016;2023-12-28T13:14:49;11.25;;;2.13;;
29712;SDS011;16623;53.632;10.016;2023-12-28T13:17:15;9.30;;;2.55;;
29712;SDS011;16623;53.632;10.016;2023-12-28T13:19:44;17.00;;;2.97;;
29712;SDS011;16623;53.632;10.016;2023-12-28T13:22:10;12.40;;;2.63;;
29712;SDS011;16623;53.632;10.016;2023-12-28T13:24:35;14.98;;;2.20;;
29712;SDS011;16623;53.632;10.016;2023-12-28T13:27:04;16.65;;;2.95;;
29712;SDS011;16623;53.632;10.016;2023-12-28T13:29:30;9.88;;;2.30;;
29712;SDS011;16623;53.632;10.016;2023-12-28T13:31:55;10.07;;;2.75;;
29712;SDS011;16623;53.632;10.016;2023-12-28T13:34:21;11.45;;;2.15;;
29712;SDS011;16623;53.632;10.016;2023-12-28T13:36:47;8.48;;;1.67;;
29712;SDS011;16623;53.632;10.016;2023-12-28T13:39:16;12.80;;;2.33;;
29712;SDS011;16623;53.632;10.016;2023-12-28T13:41:42;9.45;;;3.42;;
29712;SDS011;16623;53.632;10.016;2023-12-28T13:44:08;10.90;;;2.38;;
29712;SDS011;16623;53.632;10.016;2023-12-28T13:46:38;10.02;;;2.47;;
29712;SDS011;16623;53.632;10.016;2023-12-28T13:49:03;7.82;;;1.92;;
29712;SDS011;16623;53.632;10.016;2023-12-28T13:51:30;8.48;;;1.67;;
29712;SDS011;16623;53.632;10.016;2023-12-28T13:53:55;21.30;;;3.45;;
29712;SDS011;16623;53.632;10.016;2023-12-28T13:56:21;14.73;;;2.38;;
29712;SDS011;16623;53.632;10.016;2023-12-28T13:58:47;10.40;;;2.92;;
29712;SDS011;16623;53.632;10.016;2023-12-28T14:01:12;14.95;;;3.17;;
29712;SDS011;16623;53.632;10.016;2023-12-28T14:03:38;12.23;;;2.42;;
29712;SDS011;16623;53.632;10.016;2023-12-28T14:06:04;18.73;;;3.47;;
29712;SDS011;16623;53.632;10.016;2023-12-28T14:08:30;18.67;;;2.67;;
29712;SDS011;16623;53.632;10.016;2023-12-28T14:10:55;14.27;;;2.60;;
29712;SDS011;16623;53.632;10.016;2023-12-28T14:13:21;11.60;;;2.22;;
29712;SDS011;16623;53.632;10.016;2023-12-28T14:15:47;14.45;;;4.10;;
29712;SDS011;16623;53.632;10.016;2023-12-28T14:18:12;12.45;;;2.60;;
29712;SDS011;16623;53.632;10.016;2023-12-28T14:20:38;12.07;;;2.90;;
29712;SDS011;16623;53.632;10.016;2023-12-28T14:23:04;14.13;;;2.72;;
29712;SDS011;16623;53.632;10.016;2023-12-28T14:25:30;14.65;;;3.13;;
29712;SDS011;16623;53.632;10.016;2023-12-28T14:27:56;14.73;;;2.53;;
29712;SDS011;16623;53.632;10.016;2023-12-28T14:30:22;13.80;;;2.53;;
29712;SDS011;16623;53.632;10.016;2023-12-28T14:32:48;11.60;;;2.92;;
29712;SDS011;16623;53.632;10.016;2023-12-28T14:35:14;12.38;;;2.72;;
29712;SDS011;16623;53.632;10.016;2023-12-28T14:37:43;13.40;;;2.33;;
29712;SDS011;16623;53.632;10.016;2023-12-28T14:40:09;12.15;;;2.33;;